This is the latest recevied weather packets stored in our database for station/object KI7CSN-13. If no packets are shown the sender has not sent any weather packets the latest 10 day(s).
| Time | Temp. | Humidity | Pressure | Rain* | Wind** | Luminosity | Snow |
|---|---|---|---|---|---|---|---|
| 1778005961 | 16.11° C | 36% | 979.4 hPa | 0 mm | - | - | - |
| 1778005660 | 16.11° C | 36% | 979.4 hPa | 0 mm | - | - | - |
| 1778005361 | 15.56° C | 36% | 979.4 hPa | 0 mm | - | - | - |
| 1778005060 | 16.11° C | 35% | 979.3 hPa | 0 mm | - | - | - |
| 1778004760 | 16.11° C | 36% | 979.3 hPa | 0 mm | - | - | - |
| 1778004461 | 15.56° C | 34% | 979.4 hPa | 0 mm | - | - | - |
| 1778004161 | 17.22° C | 33% | 979.4 hPa | 0 mm | - | - | - |
| 1778003861 | 17.78° C | 33% | 979.3 hPa | 0 mm | - | - | - |
| 1778003561 | 16.11° C | 35% | 979.1 hPa | 0 mm | - | - | - |
| 1778003260 | 16.67° C | 35% | 979.1 hPa | 0 mm | - | - | - |
| 1778002961 | 16.67° C | 34% | 979.1 hPa | 0 mm | - | - | - |
| 1778002661 | 16.67° C | 35% | 979 hPa | 0 mm | - | - | - |
| 1778002361 | 16.11° C | 36% | 979 hPa | 0 mm | - | - | - |
| 1778002060 | 15.56° C | 38% | 979 hPa | 0 mm | - | - | - |
| 1778001760 | 16.11° C | 37% | 979 hPa | 0 mm | - | - | - |
| 1778001461 | 15.56° C | 39% | 979 hPa | 0 mm | - | - | - |
| 1778001161 | 15.56° C | 38% | 978.9 hPa | 0 mm | - | - | - |
| 1778000861 | 15.56° C | 38% | 978.9 hPa | 0 mm | - | - | - |
| 1778000561 | 15.56° C | 38% | 978.9 hPa | 0 mm | - | - | - |
| 1777999961 | 14.44° C | 40% | 978.9 hPa | 0 mm | - | - | - |
| 1777999661 | 15° C | 38% | 978.9 hPa | 0 mm | - | - | - |
| 1777999361 | 14.44° C | 40% | 978.9 hPa | 0 mm | - | - | - |
| 1777999061 | 15.56° C | 39% | 978.8 hPa | 0 mm | - | - | - |
| 1777998761 | 15° C | 39% | 978.9 hPa | 0 mm | - | - | - |
| 1777998461 | 13.89° C | 42% | 978.9 hPa | 0 mm | - | - | - |
* Rain latest hour (hover to see other rain measurements)
** Current wind speed in m/s (hover to see current wind gust speed)